sensor_id;sensor_type;location;lat;lon;timestamp;P1;durP1;ratioP1;P2;durP2;ratioP2
28174;SDS011;59417;44.788;10.334;2023-11-21T00:01:58;68.40;;;50.55;;
28174;SDS011;59417;44.788;10.334;2023-11-21T00:04:24;67.65;;;48.65;;
28174;SDS011;59417;44.788;10.334;2023-11-21T00:06:50;63.45;;;50.00;;
28174;SDS011;59417;44.788;10.334;2023-11-21T00:09:16;64.55;;;49.85;;
28174;SDS011;59417;44.788;10.334;2023-11-21T00:11:43;66.45;;;48.70;;
28174;SDS011;59417;44.788;10.334;2023-11-21T00:14:09;64.10;;;50.05;;
28174;SDS011;59417;44.788;10.334;2023-11-21T00:16:36;62.15;;;47.58;;
28174;SDS011;59417;44.788;10.334;2023-11-21T00:19:02;70.32;;;48.58;;
28174;SDS011;59417;44.788;10.334;2023-11-21T00:21:27;60.05;;;47.20;;
28174;SDS011;59417;44.788;10.334;2023-11-21T00:23:53;62.67;;;48.65;;
28174;SDS011;59417;44.788;10.334;2023-11-21T00:26:19;66.90;;;46.95;;
28174;SDS011;59417;44.788;10.334;2023-11-21T00:28:53;60.72;;;46.80;;
28174;SDS011;59417;44.788;10.334;2023-11-21T00:31:18;64.07;;;48.25;;
28174;SDS011;59417;44.788;10.334;2023-11-21T00:33:44;62.40;;;45.72;;
28174;SDS011;59417;44.788;10.334;2023-11-21T01:06:28;70.25;;;49.30;;
28174;SDS011;59417;44.788;10.334;2023-11-21T01:08:58;65.85;;;49.30;;
28174;SDS011;59417;44.788;10.334;2023-11-21T01:11:24;66.55;;;49.38;;
28174;SDS011;59417;44.788;10.334;2023-11-21T01:16:52;70.47;;;49.13;;
28174;SDS011;59417;44.788;10.334;2023-11-21T01:19:41;68.80;;;50.78;;
28174;SDS011;59417;44.788;10.334;2023-11-21T01:22:47;66.88;;;51.42;;
28174;SDS011;59417;44.788;10.334;2023-11-21T01:25:50;71.88;;;51.50;;
28174;SDS011;59417;44.788;10.334;2023-11-21T01:28:22;70.78;;;51.10;;
28174;SDS011;59417;44.788;10.334;2023-11-21T01:31:03;68.28;;;50.90;;
28174;SDS011;59417;44.788;10.334;2023-11-21T01:33:32;71.78;;;51.58;;
28174;SDS011;59417;44.788;10.334;2023-11-21T01:39:27;70.88;;;52.03;;
28174;SDS011;59417;44.788;10.334;2023-11-21T01:41:59;75.53;;;52.33;;
28174;SDS011;59417;44.788;10.334;2023-11-21T01:44:28;72.57;;;52.95;;
28174;SDS011;59417;44.788;10.334;2023-11-21T01:47:12;74.30;;;53.80;;
28174;SDS011;59417;44.788;10.334;2023-11-21T01:52:34;72.25;;;54.15;;
28174;SDS011;59417;44.788;10.334;2023-11-21T01:55:01;70.32;;;51.70;;
28174;SDS011;59417;44.788;10.334;2023-11-21T01:57:32;67.50;;;52.05;;
28174;SDS011;59417;44.788;10.334;2023-11-21T02:00:33;69.47;;;52.42;;
28174;SDS011;59417;44.788;10.334;2023-11-21T02:03:05;68.07;;;52.22;;
28174;SDS011;59417;44.788;10.334;2023-11-21T02:05:32;69.25;;;52.47;;
28174;SDS011;59417;44.788;10.334;2023-11-21T02:08:05;68.65;;;51.72;;
28174;SDS011;59417;44.788;10.334;2023-11-21T02:10:31;71.05;;;52.50;;
28174;SDS011;59417;44.788;10.334;2023-11-21T02:13:02;71.28;;;53.10;;
28174;SDS011;59417;44.788;10.334;2023-11-21T02:15:28;70.10;;;49.50;;
28174;SDS011;59417;44.788;10.334;2023-11-21T02:17:57;69.30;;;50.92;;
28174;SDS011;59417;44.788;10.334;2023-11-21T02:20:24;69.00;;;52.22;;
28174;SDS011;59417;44.788;10.334;2023-11-21T02:22:52;66.50;;;50.13;;
28174;SDS011;59417;44.788;10.334;2023-11-21T02:25:38;66.40;;;48.80;;
28174;SDS011;59417;44.788;10.334;2023-11-21T02:28:15;68.05;;;51.63;;
28174;SDS011;59417;44.788;10.334;2023-11-21T02:31:01;67.22;;;49.92;;
28174;SDS011;59417;44.788;10.334;2023-11-21T02:33:30;70.30;;;50.40;;
28174;SDS011;59417;44.788;10.334;2023-11-21T02:36:01;70.40;;;52.17;;
28174;SDS011;59417;44.788;10.334;2023-11-21T02:38:31;69.18;;;50.35;;
28174;SDS011;59417;44.788;10.334;2023-11-21T02:41:03;75.53;;;52.30;;
28174;SDS011;59417;44.788;10.334;2023-11-21T02:43:29;68.82;;;50.08;;
28174;SDS011;59417;44.788;10.334;2023-11-21T02:46:30;66.07;;;50.10;;
28174;SDS011;59417;44.788;10.334;2023-11-21T02:49:03;62.83;;;49.05;;
28174;SDS011;59417;44.788;10.334;2023-11-21T02:51:32;68.30;;;49.95;;
28174;SDS011;59417;44.788;10.334;2023-11-21T02:54:05;64.15;;;48.05;;
28174;SDS011;59417;44.788;10.334;2023-11-21T02:56:33;62.15;;;48.22;;
28174;SDS011;59417;44.788;10.334;2023-11-21T02:59:31;70.18;;;49.70;;
28174;SDS011;59417;44.788;10.334;2023-11-21T03:01:57;69.80;;;50.50;;
28174;SDS011;59417;44.788;10.334;2023-11-21T03:04:22;64.90;;;50.47;;
28174;SDS011;59417;44.788;10.334;2023-11-21T03:07:01;66.03;;;50.60;;
28174;SDS011;59417;44.788;10.334;2023-11-21T03:12:48;67.25;;;50.70;;
28174;SDS011;59417;44.788;10.334;2023-11-21T03:15:13;72.00;;;51.97;;
28174;SDS011;59417;44.788;10.334;2023-11-21T03:18:05;70.85;;;51.47;;
28174;SDS011;59417;44.788;10.334;2023-11-21T03:20:50;69.10;;;50.63;;
28174;SDS011;59417;44.788;10.334;2023-11-21T03:23:38;73.53;;;53.90;;
28174;SDS011;59417;44.788;10.334;2023-11-21T03:26:24;69.88;;;51.42;;
28174;SDS011;59417;44.788;10.334;2023-11-21T03:29:00;68.63;;;50.53;;
28174;SDS011;59417;44.788;10.334;2023-11-21T03:31:37;72.78;;;50.47;;
28174;SDS011;59417;44.788;10.334;2023-11-21T03:34:02;71.80;;;51.85;;
28174;SDS011;59417;44.788;10.334;2023-11-21T03:39:21;69.38;;;50.72;;
28174;SDS011;59417;44.788;10.334;2023-11-21T03:41:50;71.90;;;52.33;;
28174;SDS011;59417;44.788;10.334;2023-11-21T03:44:39;70.85;;;50.33;;
28174;SDS011;59417;44.788;10.334;2023-11-21T03:51:10;71.10;;;53.03;;
28174;SDS011;59417;44.788;10.334;2023-11-21T03:53:36;76.72;;;53.03;;
28174;SDS011;59417;44.788;10.334;2023-11-21T03:56:13;71.15;;;51.70;;
28174;SDS011;59417;44.788;10.334;2023-11-21T03:58:44;67.72;;;50.53;;
28174;SDS011;59417;44.788;10.334;2023-11-21T04:01:09;79.53;;;55.30;;
28174;SDS011;59417;44.788;10.334;2023-11-21T04:03:35;77.18;;;54.53;;
28174;SDS011;59417;44.788;10.334;2023-11-21T04:06:01;69.22;;;52.25;;
28174;SDS011;59417;44.788;10.334;2023-11-21T04:08:27;72.10;;;52.42;;
28174;SDS011;59417;44.788;10.334;2023-11-21T04:11:02;71.50;;;51.80;;
28174;SDS011;59417;44.788;10.334;2023-11-21T04:13:36;66.35;;;51.42;;
28174;SDS011;59417;44.788;10.334;2023-11-21T04:16:12;69.35;;;50.30;;
28174;SDS011;59417;44.788;10.334;2023-11-21T04:18:38;78.38;;;53.33;;
28174;SDS011;59417;44.788;10.334;2023-11-21T04:24:27;66.05;;;49.67;;
28174;SDS011;59417;44.788;10.334;2023-11-21T04:27:09;73.85;;;50.58;;
28174;SDS011;59417;44.788;10.334;2023-11-21T04:29:34;72.55;;;52.40;;
28174;SDS011;59417;44.788;10.334;2023-11-21T04:32:02;70.72;;;51.40;;
28174;SDS011;59417;44.788;10.334;2023-11-21T04:34:31;66.63;;;52.13;;
28174;SDS011;59417;44.788;10.334;2023-11-21T04:37:02;73.13;;;52.70;;
28174;SDS011;59417;44.788;10.334;2023-11-21T04:39:28;68.20;;;50.42;;
28174;SDS011;59417;44.788;10.334;2023-11-21T04:42:04;67.82;;;50.65;;
28174;SDS011;59417;44.788;10.334;2023-11-21T04:44:32;70.00;;;53.60;;
28174;SDS011;59417;44.788;10.334;2023-11-21T04:47:04;74.03;;;49.45;;
28174;SDS011;59417;44.788;10.334;2023-11-21T04:49:30;71.47;;;52.97;;
28174;SDS011;59417;44.788;10.334;2023-11-21T04:52:09;73.97;;;51.88;;
28174;SDS011;59417;44.788;10.334;2023-11-21T04:54:35;76.00;;;53.65;;
28174;SDS011;59417;44.788;10.334;2023-11-21T04:57:04;78.78;;;54.35;;
28174;SDS011;59417;44.788;10.334;2023-11-21T04:59:30;72.00;;;52.90;;
28174;SDS011;59417;44.788;10.334;2023-11-21T05:02:11;71.68;;;53.20;;
28174;SDS011;59417;44.788;10.334;2023-11-21T05:04:39;70.85;;;52.60;;
28174;SDS011;59417;44.788;10.334;2023-11-21T05:07:33;73.47;;;51.83;;
28174;SDS011;59417;44.788;10.334;2023-11-21T05:10:07;71.05;;;51.83;;
28174;SDS011;59417;44.788;10.334;2023-11-21T05:12:51;69.07;;;51.85;;
28174;SDS011;59417;44.788;10.334;2023-11-21T05:15:36;74.35;;;53.08;;
28174;SDS011;59417;44.788;10.334;2023-11-21T05:18:02;65.85;;;50.92;;
28174;SDS011;59417;44.788;10.334;2023-11-21T05:20:28;71.72;;;51.13;;
28174;SDS011;59417;44.788;10.334;2023-11-21T05:25:31;69.65;;;49.25;;
28174;SDS011;59417;44.788;10.334;2023-11-21T05:28:09;66.43;;;49.55;;
28174;SDS011;59417;44.788;10.334;2023-11-21T05:30:45;68.82;;;48.83;;
28174;SDS011;59417;44.788;10.334;2023-11-21T05:33:21;66.68;;;49.50;;
28174;SDS011;59417;44.788;10.334;2023-11-21T05:35:58;70.63;;;48.95;;
28174;SDS011;59417;44.788;10.334;2023-11-21T05:38:24;64.68;;;50.50;;
28174;SDS011;59417;44.788;10.334;2023-11-21T05:40:49;66.93;;;49.55;;
28174;SDS011;59417;44.788;10.334;2023-11-21T05:43:24;64.20;;;47.75;;
28174;SDS011;59417;44.788;10.334;2023-11-21T05:45:55;69.05;;;48.88;;
28174;SDS011;59417;44.788;10.334;2023-11-21T05:48:20;70.70;;;50.75;;
28174;SDS011;59417;44.788;10.334;2023-11-21T05:50:54;68.38;;;50.10;;
28174;SDS011;59417;44.788;10.334;2023-11-21T05:53:29;68.38;;;50.85;;
28174;SDS011;59417;44.788;10.334;2023-11-21T05:56:10;66.40;;;51.03;;
28174;SDS011;59417;44.788;10.334;2023-11-21T05:58:45;74.72;;;51.33;;
28174;SDS011;59417;44.788;10.334;2023-11-21T06:01:13;72.13;;;50.85;;
28174;SDS011;59417;44.788;10.334;2023-11-21T06:03:42;77.22;;;54.05;;
28174;SDS011;59417;44.788;10.334;2023-11-21T06:06:56;72.47;;;52.30;;
28174;SDS011;59417;44.788;10.334;2023-11-21T06:09:43;72.45;;;52.58;;
28174;SDS011;59417;44.788;10.334;2023-11-21T06:12:22;68.65;;;51.45;;
28174;SDS011;59417;44.788;10.334;2023-11-21T06:14:53;69.65;;;50.03;;
28174;SDS011;59417;44.788;10.334;2023-11-21T06:17:33;75.75;;;53.42;;
28174;SDS011;59417;44.788;10.334;2023-11-21T06:20:04;73.90;;;51.63;;
28174;SDS011;59417;44.788;10.334;2023-11-21T06:22:44;73.38;;;53.05;;
28174;SDS011;59417;44.788;10.334;2023-11-21T06:25:14;77.53;;;54.72;;
28174;SDS011;59417;44.788;10.334;2023-11-21T06:27:40;74.50;;;52.55;;
28174;SDS011;59417;44.788;10.334;2023-11-21T06:30:16;72.57;;;52.08;;
28174;SDS011;59417;44.788;10.334;2023-11-21T06:32:57;75.20;;;53.80;;
28174;SDS011;59417;44.788;10.334;2023-11-21T06:35:50;70.40;;;51.95;;
28174;SDS011;59417;44.788;10.334;2023-11-21T06:38:15;73.05;;;51.38;;
28174;SDS011;59417;44.788;10.334;2023-11-21T06:40:40;70.30;;;52.78;;
28174;SDS011;59417;44.788;10.334;2023-11-21T06:43:06;69.78;;;53.83;;
28174;SDS011;59417;44.788;10.334;2023-11-21T06:45:33;72.55;;;54.80;;
28174;SDS011;59417;44.788;10.334;2023-11-21T06:47:59;81.45;;;54.45;;
28174;SDS011;59417;44.788;10.334;2023-11-21T06:50:25;74.28;;;52.53;;
28174;SDS011;59417;44.788;10.334;2023-11-21T06:52:51;75.38;;;52.58;;
28174;SDS011;59417;44.788;10.334;2023-11-21T06:55:17;76.35;;;54.25;;
28174;SDS011;59417;44.788;10.334;2023-11-21T06:57:43;79.70;;;57.10;;
28174;SDS011;59417;44.788;10.334;2023-11-21T07:00:10;77.15;;;54.30;;
28174;SDS011;59417;44.788;10.334;2023-11-21T07:02:38;76.68;;;57.67;;
28174;SDS011;59417;44.788;10.334;2023-11-21T07:05:05;75.20;;;55.42;;
28174;SDS011;59417;44.788;10.334;2023-11-21T07:07:31;76.57;;;55.72;;
28174;SDS011;59417;44.788;10.334;2023-11-21T07:09:57;73.30;;;53.05;;
28174;SDS011;59417;44.788;10.334;2023-11-21T07:12:30;67.88;;;53.47;;
28174;SDS011;59417;44.788;10.334;2023-11-21T07:14:59;69.43;;;51.00;;
28174;SDS011;59417;44.788;10.334;2023-11-21T07:17:25;67.63;;;52.47;;
28174;SDS011;59417;44.788;10.334;2023-11-21T07:19:51;68.75;;;51.22;;
28174;SDS011;59417;44.788;10.334;2023-11-21T07:22:23;73.43;;;50.42;;
28174;SDS011;59417;44.788;10.334;2023-11-21T07:24:51;67.10;;;52.03;;
28174;SDS011;59417;44.788;10.334;2023-11-21T07:27:20;76.00;;;53.63;;
28174;SDS011;59417;44.788;10.334;2023-11-21T07:29:46;67.80;;;50.55;;
28174;SDS011;59417;44.788;10.334;2023-11-21T07:32:16;77.60;;;55.00;;
28174;SDS011;59417;44.788;10.334;2023-11-21T07:34:44;76.63;;;55.10;;
28174;SDS011;59417;44.788;10.334;2023-11-21T07:37:10;78.22;;;54.53;;
28174;SDS011;59417;44.788;10.334;2023-11-21T07:39:35;84.80;;;56.03;;
28174;SDS011;59417;44.788;10.334;2023-11-21T07:42:02;76.75;;;54.92;;
28174;SDS011;59417;44.788;10.334;2023-11-21T07:44:28;79.13;;;54.13;;
28174;SDS011;59417;44.788;10.334;2023-11-21T07:46:57;81.28;;;56.60;;
28174;SDS011;59417;44.788;10.334;2023-11-21T07:49:31;81.25;;;57.60;;
28174;SDS011;59417;44.788;10.334;2023-11-21T07:51:57;82.80;;;58.80;;
28174;SDS011;59417;44.788;10.334;2023-11-21T07:54:31;83.60;;;61.00;;
28174;SDS011;59417;44.788;10.334;2023-11-21T07:57:01;89.45;;;59.80;;
28174;SDS011;59417;44.788;10.334;2023-11-21T07:59:28;82.75;;;58.70;;
28174;SDS011;59417;44.788;10.334;2023-11-21T08:01:54;83.18;;;59.80;;
28174;SDS011;59417;44.788;10.334;2023-11-21T08:04:19;86.43;;;60.47;;
28174;SDS011;59417;44.788;10.334;2023-11-21T08:06:45;87.03;;;61.92;;
28174;SDS011;59417;44.788;10.334;2023-11-21T08:09:14;85.03;;;60.08;;
28174;SDS011;59417;44.788;10.334;2023-11-21T08:11:42;90.68;;;63.75;;
28174;SDS011;59417;44.788;10.334;2023-11-21T08:14:08;87.82;;;58.38;;
28174;SDS011;59417;44.788;10.334;2023-11-21T08:16:34;90.20;;;64.20;;
28174;SDS011;59417;44.788;10.334;2023-11-21T08:19:10;92.95;;;63.58;;
28174;SDS011;59417;44.788;10.334;2023-11-21T08:21:36;91.70;;;64.15;;
28174;SDS011;59417;44.788;10.334;2023-11-21T08:24:04;88.40;;;63.33;;
28174;SDS011;59417;44.788;10.334;2023-11-21T08:26:31;82.30;;;59.38;;
28174;SDS011;59417;44.788;10.334;2023-11-21T08:28:57;88.53;;;58.10;;
28174;SDS011;59417;44.788;10.334;2023-11-21T08:31:24;79.72;;;57.80;;
28174;SDS011;59417;44.788;10.334;2023-11-21T08:33:54;79.07;;;58.45;;
28174;SDS011;59417;44.788;10.334;2023-11-21T08:37:01;84.45;;;58.15;;
28174;SDS011;59417;44.788;10.334;2023-11-21T08:42:40;79.85;;;60.50;;
28174;SDS011;59417;44.788;10.334;2023-11-21T08:45:17;79.53;;;60.30;;
28174;SDS011;59417;44.788;10.334;2023-11-21T08:47:50;82.28;;;59.30;;
28174;SDS011;59417;44.788;10.334;2023-11-21T08:50:16;91.70;;;60.63;;
28174;SDS011;59417;44.788;10.334;2023-11-21T08:53:05;87.75;;;59.85;;
28174;SDS011;59417;44.788;10.334;2023-11-21T08:55:48;79.22;;;57.63;;
28174;SDS011;59417;44.788;10.334;2023-11-21T08:58:28;80.22;;;56.72;;
28174;SDS011;59417;44.788;10.334;2023-11-21T09:01:00;80.78;;;59.35;;
28174;SDS011;59417;44.788;10.334;2023-11-21T09:03:47;83.85;;;60.13;;
28174;SDS011;59417;44.788;10.334;2023-11-21T09:06:12;83.80;;;60.67;;
28174;SDS011;59417;44.788;10.334;2023-11-21T09:08:39;80.75;;;56.92;;
28174;SDS011;59417;44.788;10.334;2023-11-21T09:11:04;91.50;;;59.05;;
28174;SDS011;59417;44.788;10.334;2023-11-21T09:13:40;79.50;;;55.45;;
28174;SDS011;59417;44.788;10.334;2023-11-21T09:16:06;79.28;;;59.65;;
28174;SDS011;59417;44.788;10.334;2023-11-21T09:18:43;78.57;;;58.28;;
28174;SDS011;59417;44.788;10.334;2023-11-21T09:21:15;96.70;;;60.53;;
28174;SDS011;59417;44.788;10.334;2023-11-21T09:23:59;85.82;;;59.15;;
28174;SDS011;59417;44.788;10.334;2023-11-21T09:26:37;88.25;;;61.65;;
28174;SDS011;59417;44.788;10.334;2023-11-21T09:29:36;87.47;;;64.78;;
28174;SDS011;59417;44.788;10.334;2023-11-21T09:32:07;90.27;;;66.80;;
28174;SDS011;59417;44.788;10.334;2023-11-21T09:34:42;87.28;;;63.97;;
28174;SDS011;59417;44.788;10.334;2023-11-21T09:37:31;93.03;;;64.07;;
28174;SDS011;59417;44.788;10.334;2023-11-21T09:40:04;90.85;;;66.22;;
28174;SDS011;59417;44.788;10.334;2023-11-21T09:42:54;87.57;;;64.25;;
28174;SDS011;59417;44.788;10.334;2023-11-21T09:45:57;86.93;;;67.25;;
28174;SDS011;59417;44.788;10.334;2023-11-21T09:49:06;87.22;;;64.45;;
28174;SDS011;59417;44.788;10.334;2023-11-21T09:51:54;86.07;;;65.70;;
28174;SDS011;59417;44.788;10.334;2023-11-21T09:54:24;87.07;;;63.20;;
28174;SDS011;59417;44.788;10.334;2023-11-21T09:56:54;98.18;;;67.18;;
28174;SDS011;59417;44.788;10.334;2023-11-21T09:59:21;85.75;;;62.45;;
28174;SDS011;59417;44.788;10.334;2023-11-21T10:04:19;94.05;;;63.65;;
28174;SDS011;59417;44.788;10.334;2023-11-21T10:06:48;86.80;;;64.15;;
28174;SDS011;59417;44.788;10.334;2023-11-21T10:09:15;88.55;;;65.15;;
28174;SDS011;59417;44.788;10.334;2023-11-21T10:11:42;83.85;;;63.00;;
28174;SDS011;59417;44.788;10.334;2023-11-21T10:14:12;89.05;;;63.97;;
28174;SDS011;59417;44.788;10.334;2023-11-21T10:16:40;85.97;;;64.43;;
28174;SDS011;59417;44.788;10.334;2023-11-21T10:19:08;85.03;;;66.13;;
28174;SDS011;59417;44.788;10.334;2023-11-21T10:21:35;92.72;;;66.30;;
28174;SDS011;59417;44.788;10.334;2023-11-21T10:24:09;89.53;;;65.93;;
28174;SDS011;59417;44.788;10.334;2023-11-21T10:26:44;90.22;;;66.85;;
28174;SDS011;59417;44.788;10.334;2023-11-21T10:31:43;89.18;;;65.95;;
28174;SDS011;59417;44.788;10.334;2023-11-21T10:34:15;83.65;;;62.10;;
28174;SDS011;59417;44.788;10.334;2023-11-21T10:36:45;88.22;;;66.07;;
28174;SDS011;59417;44.788;10.334;2023-11-21T10:39:29;91.13;;;65.25;;
28174;SDS011;59417;44.788;10.334;2023-11-21T10:41:56;90.10;;;65.25;;
28174;SDS011;59417;44.788;10.334;2023-11-21T10:44:31;88.05;;;65.30;;
28174;SDS011;59417;44.788;10.334;2023-11-21T10:47:24;91.32;;;63.20;;
28174;SDS011;59417;44.788;10.334;2023-11-21T10:49:51;94.40;;;64.57;;
28174;SDS011;59417;44.788;10.334;2023-11-21T10:53:11;92.47;;;67.38;;
28174;SDS011;59417;44.788;10.334;2023-11-21T10:55:33;90.90;;;65.60;;
28174;SDS011;59417;44.788;10.334;2023-11-21T10:58:34;94.22;;;68.78;;
28174;SDS011;59417;44.788;10.334;2023-11-21T11:01:02;95.57;;;67.03;;
28174;SDS011;59417;44.788;10.334;2023-11-21T11:03:32;93.78;;;66.45;;
28174;SDS011;59417;44.788;10.334;2023-11-21T11:06:02;91.90;;;66.15;;
28174;SDS011;59417;44.788;10.334;2023-11-21T11:11:36;90.13;;;66.65;;
28174;SDS011;59417;44.788;10.334;2023-11-21T11:14:06;89.00;;;62.53;;
28174;SDS011;59417;44.788;10.334;2023-11-21T11:16:39;90.72;;;67.60;;
28174;SDS011;59417;44.788;10.334;2023-11-21T11:19:09;88.50;;;66.38;;
28174;SDS011;59417;44.788;10.334;2023-11-21T11:38:36;88.68;;;65.72;;
28174;SDS011;59417;44.788;10.334;2023-11-21T11:41:03;90.43;;;62.28;;
28174;SDS011;59417;44.788;10.334;2023-11-21T11:43:30;90.60;;;63.72;;
28174;SDS011;59417;44.788;10.334;2023-11-21T11:46:09;91.57;;;63.20;;
28174;SDS011;59417;44.788;10.334;2023-11-21T11:48:49;90.47;;;64.88;;
28174;SDS011;59417;44.788;10.334;2023-11-21T11:51:31;87.50;;;63.13;;
28174;SDS011;59417;44.788;10.334;2023-11-21T11:54:31;90.07;;;64.22;;
28174;SDS011;59417;44.788;10.334;2023-11-21T11:57:03;90.60;;;63.67;;
28174;SDS011;59417;44.788;10.334;2023-11-21T11:59:29;91.10;;;64.20;;
28174;SDS011;59417;44.788;10.334;2023-11-21T12:01:55;88.80;;;64.35;;
28174;SDS011;59417;44.788;10.334;2023-11-21T12:04:28;96.18;;;64.88;;
28174;SDS011;59417;44.788;10.334;2023-11-21T12:07:00;84.90;;;63.40;;
28174;SDS011;59417;44.788;10.334;2023-11-21T12:09:30;87.07;;;64.50;;
28174;SDS011;59417;44.788;10.334;2023-11-21T12:11:59;87.70;;;63.83;;
28174;SDS011;59417;44.788;10.334;2023-11-21T12:14:25;88.10;;;63.22;;
28174;SDS011;59417;44.788;10.334;2023-11-21T12:16:50;85.22;;;62.90;;
28174;SDS011;59417;44.788;10.334;2023-11-21T12:19:17;88.90;;;66.78;;
28174;SDS011;59417;44.788;10.334;2023-11-21T12:21:43;90.00;;;63.90;;
28174;SDS011;59417;44.788;10.334;2023-11-21T12:24:14;92.40;;;64.38;;
28174;SDS011;59417;44.788;10.334;2023-11-21T12:26:43;84.53;;;62.80;;
28174;SDS011;59417;44.788;10.334;2023-11-21T12:29:09;88.20;;;61.67;;
28174;SDS011;59417;44.788;10.334;2023-11-21T12:31:36;82.55;;;60.63;;
28174;SDS011;59417;44.788;10.334;2023-11-21T12:34:04;87.28;;;61.95;;
28174;SDS011;59417;44.788;10.334;2023-11-21T12:36:34;79.35;;;60.28;;
28174;SDS011;59417;44.788;10.334;2023-11-21T12:39:02;82.68;;;60.25;;
28174;SDS011;59417;44.788;10.334;2023-11-21T12:41:31;81.80;;;59.55;;
28174;SDS011;59417;44.788;10.334;2023-11-21T12:43:56;82.43;;;59.42;;
28174;SDS011;59417;44.788;10.334;2023-11-21T12:46:23;86.35;;;65.40;;
28174;SDS011;59417;44.788;10.334;2023-11-21T12:48:56;83.60;;;61.80;;
28174;SDS011;59417;44.788;10.334;2023-11-21T12:51:28;82.32;;;62.65;;
28174;SDS011;59417;44.788;10.334;2023-11-21T12:53:54;86.35;;;62.78;;
28174;SDS011;59417;44.788;10.334;2023-11-21T12:57:12;87.80;;;63.17;;
28174;SDS011;59417;44.788;10.334;2023-11-21T12:59:33;90.65;;;64.43;;
28174;SDS011;59417;44.788;10.334;2023-11-21T13:02:20;84.10;;;60.75;;
28174;SDS011;59417;44.788;10.334;2023-11-21T13:04:51;80.78;;;61.97;;
28174;SDS011;59417;44.788;10.334;2023-11-21T13:07:21;86.05;;;63.47;;
28174;SDS011;59417;44.788;10.334;2023-11-21T13:09:50;81.28;;;56.88;;
28174;SDS011;59417;44.788;10.334;2023-11-21T13:12:23;81.80;;;60.15;;
28174;SDS011;59417;44.788;10.334;2023-11-21T13:14:50;85.05;;;63.42;;
28174;SDS011;59417;44.788;10.334;2023-11-21T13:17:17;87.05;;;64.28;;
28174;SDS011;59417;44.788;10.334;2023-11-21T13:19:43;83.03;;;61.15;;
28174;SDS011;59417;44.788;10.334;2023-11-21T13:22:09;82.13;;;58.42;;
28174;SDS011;59417;44.788;10.334;2023-11-21T13:24:41;84.18;;;59.50;;
28174;SDS011;59417;44.788;10.334;2023-11-21T13:27:07;85.72;;;58.70;;
28174;SDS011;59417;44.788;10.334;2023-11-21T13:29:35;81.57;;;58.65;;
28174;SDS011;59417;44.788;10.334;2023-11-21T13:32:01;81.15;;;60.67;;
28174;SDS011;59417;44.788;10.334;2023-11-21T13:34:28;81.63;;;59.28;;
28174;SDS011;59417;44.788;10.334;2023-11-21T13:37:05;81.75;;;59.33;;
28174;SDS011;59417;44.788;10.334;2023-11-21T13:39:43;83.18;;;59.78;;
28174;SDS011;59417;44.788;10.334;2023-11-21T13:42:10;75.88;;;60.17;;
28174;SDS011;59417;44.788;10.334;2023-11-21T13:44:36;77.50;;;57.30;;
28174;SDS011;59417;44.788;10.334;2023-11-21T13:47:06;72.63;;;55.13;;
28174;SDS011;59417;44.788;10.334;2023-11-21T13:49:31;80.28;;;58.72;;
28174;SDS011;59417;44.788;10.334;2023-11-21T13:52:01;84.07;;;61.03;;
28174;SDS011;59417;44.788;10.334;2023-11-21T13:55:01;77.65;;;57.08;;
28174;SDS011;59417;44.788;10.334;2023-11-21T13:57:33;83.85;;;59.42;;
28174;SDS011;59417;44.788;10.334;2023-11-21T13:59:59;82.32;;;61.42;;
28174;SDS011;59417;44.788;10.334;2023-11-21T14:02:50;83.97;;;62.22;;
28174;SDS011;59417;44.788;10.334;2023-11-21T14:05:26;82.22;;;60.22;;
28174;SDS011;59417;44.788;10.334;2023-11-21T14:07:57;78.18;;;60.40;;
28174;SDS011;59417;44.788;10.334;2023-11-21T14:10:39;76.63;;;58.50;;
28174;SDS011;59417;44.788;10.334;2023-11-21T14:13:11;81.22;;;59.17;;
28174;SDS011;59417;44.788;10.334;2023-11-21T14:15:40;87.43;;;60.88;;
28174;SDS011;59417;44.788;10.334;2023-11-21T14:18:08;78.72;;;60.35;;
28174;SDS011;59417;44.788;10.334;2023-11-21T14:20:41;85.30;;;60.70;;
28174;SDS011;59417;44.788;10.334;2023-11-21T14:23:10;84.80;;;60.88;;
28174;SDS011;59417;44.788;10.334;2023-11-21T14:25:37;83.28;;;59.72;;
28174;SDS011;59417;44.788;10.334;2023-11-21T14:28:07;84.65;;;58.03;;
28174;SDS011;59417;44.788;10.334;2023-11-21T14:30:33;78.10;;;57.90;;
28174;SDS011;59417;44.788;10.334;2023-11-21T14:33:01;79.00;;;58.28;;
28174;SDS011;59417;44.788;10.334;2023-11-21T14:35:28;79.90;;;59.10;;
28174;SDS011;59417;44.788;10.334;2023-11-21T14:38:00;82.13;;;58.80;;
28174;SDS011;59417;44.788;10.334;2023-11-21T14:40:31;75.22;;;56.63;;
28174;SDS011;59417;44.788;10.334;2023-11-21T14:42:59;77.93;;;58.85;;
28174;SDS011;59417;44.788;10.334;2023-11-21T14:45:25;74.85;;;56.88;;
28174;SDS011;59417;44.788;10.334;2023-11-21T14:47:52;84.60;;;58.88;;
28174;SDS011;59417;44.788;10.334;2023-11-21T14:50:34;79.47;;;56.30;;
28174;SDS011;59417;44.788;10.334;2023-11-21T14:53:06;79.68;;;56.90;;
28174;SDS011;59417;44.788;10.334;2023-11-21T14:55:33;81.03;;;56.60;;
28174;SDS011;59417;44.788;10.334;2023-11-21T14:58:15;79.32;;;55.08;;
28174;SDS011;59417;44.788;10.334;2023-11-21T15:00:55;82.60;;;56.05;;
28174;SDS011;59417;44.788;10.334;2023-11-21T15:03:26;79.70;;;55.17;;
28174;SDS011;59417;44.788;10.334;2023-11-21T15:06:03;81.45;;;57.08;;
28174;SDS011;59417;44.788;10.334;2023-11-21T15:08:52;84.60;;;57.33;;
28174;SDS011;59417;44.788;10.334;2023-11-21T15:11:48;89.00;;;57.78;;
28174;SDS011;59417;44.788;10.334;2023-11-21T15:14:43;85.97;;;57.72;;
28174;SDS011;59417;44.788;10.334;2023-11-21T15:17:56;80.85;;;57.88;;
28174;SDS011;59417;44.788;10.334;2023-11-21T15:20:43;83.95;;;56.05;;
28174;SDS011;59417;44.788;10.334;2023-11-21T15:23:15;81.65;;;55.78;;
28174;SDS011;59417;44.788;10.334;2023-11-21T15:25:44;77.07;;;55.50;;
28174;SDS011;59417;44.788;10.334;2023-11-21T15:28:11;82.72;;;57.42;;
28174;SDS011;59417;44.788;10.334;2023-11-21T15:30:36;85.28;;;58.50;;
28174;SDS011;59417;44.788;10.334;2023-11-21T15:33:02;81.72;;;58.90;;
28174;SDS011;59417;44.788;10.334;2023-11-21T15:35:29;76.82;;;59.47;;
28174;SDS011;59417;44.788;10.334;2023-11-21T15:37:55;77.88;;;58.85;;
28174;SDS011;59417;44.788;10.334;2023-11-21T15:40:23;79.07;;;58.15;;
28174;SDS011;59417;44.788;10.334;2023-11-21T15:42:50;81.90;;;58.28;;
28174;SDS011;59417;44.788;10.334;2023-11-21T15:45:16;86.43;;;58.40;;
28174;SDS011;59417;44.788;10.334;2023-11-21T15:50:14;83.15;;;57.65;;
28174;SDS011;59417;44.788;10.334;2023-11-21T15:52:40;85.63;;;57.55;;
28174;SDS011;59417;44.788;10.334;2023-11-21T15:55:08;86.03;;;58.88;;
28174;SDS011;59417;44.788;10.334;2023-11-21T15:57:45;81.72;;;57.47;;
28174;SDS011;59417;44.788;10.334;2023-11-21T16:00:14;75.20;;;57.55;;
28174;SDS011;59417;44.788;10.334;2023-11-21T16:02:45;78.20;;;57.80;;
28174;SDS011;59417;44.788;10.334;2023-11-21T16:05:14;85.80;;;58.85;;
28174;SDS011;59417;44.788;10.334;2023-11-21T16:07:42;88.57;;;62.55;;